This is the latest recevied weather packets stored in our database for station/object OE3CJB-13. If no packets are shown the sender has not sent any weather packets the latest 10 day(s).
| Time | Temp. | Humidity | Pressure | Rain* | Wind** | Luminosity | Snow |
|---|---|---|---|---|---|---|---|
| 1788207365 | 21.67° C | 57% | 1194.7 hPa | 0 mm | - | - | - |
| 1788206466 | 22.22° C | 54% | 1195.1 hPa | 0 mm | - | - | - |
| 1788205533 | 22.22° C | 54% | 1193.4 hPa | 0 mm | - | - | - |
| 1788204620 | 22.22° C | 52% | 1193.1 hPa | 0 mm | - | - | - |
| 1788203757 | 22.22° C | 51% | 1192.9 hPa | 0 mm | - | - | - |
| 1788202847 | 22.22° C | 49% | 1192.8 hPa | 0 mm | - | - | - |
| 1788201932 | 22.78° C | 48% | 1192.5 hPa | 0 mm | - | - | - |
| 1788201020 | 23.33° C | 45% | 1191.7 hPa | 0 mm | - | - | - |
| 1788200156 | 23.89° C | 41% | 1192.3 hPa | 0 mm | - | - | - |
| 1788199246 | 24.44° C | 37% | 1192.1 hPa | 0 mm | - | - | - |
| 1788198332 | 25° C | 34% | 1190.4 hPa | 0 mm | - | - | - |
| 1788197420 | 25.56° C | 31% | 1188.9 hPa | 0 mm | - | - | - |
| 1788196556 | 26.11° C | 29% | 1188.1 hPa | 0 mm | - | - | - |
| 1788195646 | 26.67° C | 27% | 1187.4 hPa | 0 mm | - | - | - |
| 1788194732 | 27.22° C | 25% | 1184.3 hPa | 0 mm | - | - | - |
| 1788193820 | 27.78° C | 24% | 1182.3 hPa | 0 mm | - | - | - |
| 1788192956 | 27.78° C | 24% | 1180.9 hPa | 0 mm | - | - | - |
| 1788192046 | 27.78° C | 25% | 1180 hPa | 0 mm | - | - | - |
| 1788191165 | 28.33° C | 24% | 1180.7 hPa | 0 mm | - | - | - |
| 1788190220 | 28.33° C | 24% | 1181.5 hPa | 0 mm | - | - | - |
| 1788189356 | 29.44° C | 22% | 1181.7 hPa | 0 mm | - | - | - |
| 1788188446 | 29.44° C | 24% | 1183.2 hPa | 0 mm | - | - | - |
| 1788187532 | 29.44° C | 25% | 1184 hPa | 0 mm | - | - | - |
| 1788186619 | 29.44° C | 25% | 1185.5 hPa | 0 mm | - | - | - |
| 1788185766 | 29.44° C | 27% | 1186.3 hPa | 0 mm | - | - | - |
* Rain latest hour (hover to see other rain measurements)
** Current wind speed in m/s (hover to see current wind gust speed)